sensor_id;sensor_type;location;lat;lon;timestamp;temperature;humidity
19292;DHT22;9779;51.756;7.450;2023-08-01T00:02:22;16.10;99.90
19292;DHT22;9779;51.756;7.450;2023-08-01T00:04:48;16.10;99.90
19292;DHT22;9779;51.756;7.450;2023-08-01T00:07:13;16.10;99.90
19292;DHT22;9779;51.756;7.450;2023-08-01T00:09:39;16.10;99.90
19292;DHT22;9779;51.756;7.450;2023-08-01T00:12:05;16.10;99.90
19292;DHT22;9779;51.756;7.450;2023-08-01T00:14:30;16.10;99.90
19292;DHT22;9779;51.756;7.450;2023-08-01T00:16:56;16.10;99.90
19292;DHT22;9779;51.756;7.450;2023-08-01T00:19:21;16.10;99.90
19292;DHT22;9779;51.756;7.450;2023-08-01T00:21:47;16.10;99.90
19292;DHT22;9779;51.756;7.450;2023-08-01T00:24:13;16.10;99.90
19292;DHT22;9779;51.756;7.450;2023-08-01T00:26:38;16.10;99.90
19292;DHT22;9779;51.756;7.450;2023-08-01T00:29:04;16.00;99.90
19292;DHT22;9779;51.756;7.450;2023-08-01T00:31:29;16.00;99.90
19292;DHT22;9779;51.756;7.450;2023-08-01T00:33:55;16.10;99.90
19292;DHT22;9779;51.756;7.450;2023-08-01T00:36:20;16.10;99.90
19292;DHT22;9779;51.756;7.450;2023-08-01T00:38:46;16.00;99.90
19292;DHT22;9779;51.756;7.450;2023-08-01T00:41:12;16.00;99.90
19292;DHT22;9779;51.756;7.450;2023-08-01T00:43:38;16.00;99.90
19292;DHT22;9779;51.756;7.450;2023-08-01T00:46:05;16.00;99.90
19292;DHT22;9779;51.756;7.450;2023-08-01T00:48:31;16.00;99.90
19292;DHT22;9779;51.756;7.450;2023-08-01T00:50:59;16.10;99.90
19292;DHT22;9779;51.756;7.450;2023-08-01T00:53:25;16.00;99.90
19292;DHT22;9779;51.756;7.450;2023-08-01T00:55:54;16.10;99.90
19292;DHT22;9779;51.756;7.450;2023-08-01T00:58:20;16.00;99.90
19292;DHT22;9779;51.756;7.450;2023-08-01T01:00:46;16.00;99.90
19292;DHT22;9779;51.756;7.450;2023-08-01T01:03:12;16.00;99.90
19292;DHT22;9779;51.756;7.450;2023-08-01T01:05:43;16.00;99.90
19292;DHT22;9779;51.756;7.450;2023-08-01T01:08:11;16.00;99.90
19292;DHT22;9779;51.756;7.450;2023-08-01T01:10:37;16.00;99.90
19292;DHT22;9779;51.756;7.450;2023-08-01T01:13:02;16.00;99.90
19292;DHT22;9779;51.756;7.450;2023-08-01T01:15:28;16.00;99.90
19292;DHT22;9779;51.756;7.450;2023-08-01T01:17:54;16.00;99.90
19292;DHT22;9779;51.756;7.450;2023-08-01T01:20:24;16.00;99.90
19292;DHT22;9779;51.756;7.450;2023-08-01T01:22:52;16.00;99.90
19292;DHT22;9779;51.756;7.450;2023-08-01T01:25:20;16.00;99.90
19292;DHT22;9779;51.756;7.450;2023-08-01T01:27:49;16.00;99.90
19292;DHT22;9779;51.756;7.450;2023-08-01T01:30:15;16.00;99.90
19292;DHT22;9779;51.756;7.450;2023-08-01T01:32:41;16.00;99.90
19292;DHT22;9779;51.756;7.450;2023-08-01T01:35:07;16.00;99.90
19292;DHT22;9779;51.756;7.450;2023-08-01T01:37:33;16.00;99.90
19292;DHT22;9779;51.756;7.450;2023-08-01T01:39:58;16.00;99.90
19292;DHT22;9779;51.756;7.450;2023-08-01T01:42:24;16.00;99.90
19292;DHT22;9779;51.756;7.450;2023-08-01T01:44:49;16.00;99.90
19292;DHT22;9779;51.756;7.450;2023-08-01T01:47:15;16.00;99.90
19292;DHT22;9779;51.756;7.450;2023-08-01T01:49:40;16.00;99.90
19292;DHT22;9779;51.756;7.450;2023-08-01T01:52:06;16.00;99.90
19292;DHT22;9779;51.756;7.450;2023-08-01T01:54:32;16.00;99.90
19292;DHT22;9779;51.756;7.450;2023-08-01T01:56:57;16.00;99.90
19292;DHT22;9779;51.756;7.450;2023-08-01T01:59:23;15.90;99.90
19292;DHT22;9779;51.756;7.450;2023-08-01T02:01:48;15.90;99.90
19292;DHT22;9779;51.756;7.450;2023-08-01T02:04:14;15.90;99.90
19292;DHT22;9779;51.756;7.450;2023-08-01T02:06:39;15.90;99.90
19292;DHT22;9779;51.756;7.450;2023-08-01T02:09:06;15.90;99.90
19292;DHT22;9779;51.756;7.450;2023-08-01T02:11:31;15.90;99.90
19292;DHT22;9779;51.756;7.450;2023-08-01T02:13:57;15.90;99.90
19292;DHT22;9779;51.756;7.450;2023-08-01T02:16:22;15.90;99.90
19292;DHT22;9779;51.756;7.450;2023-08-01T02:18:48;15.90;99.90
19292;DHT22;9779;51.756;7.450;2023-08-01T02:21:13;15.90;99.90
19292;DHT22;9779;51.756;7.450;2023-08-01T02:23:39;15.90;99.90
19292;DHT22;9779;51.756;7.450;2023-08-01T02:26:04;15.90;99.90
19292;DHT22;9779;51.756;7.450;2023-08-01T02:28:31;15.90;99.90
19292;DHT22;9779;51.756;7.450;2023-08-01T02:30:56;15.90;99.90
19292;DHT22;9779;51.756;7.450;2023-08-01T02:33:22;16.00;99.90
19292;DHT22;9779;51.756;7.450;2023-08-01T02:35:47;15.90;99.90
19292;DHT22;9779;51.756;7.450;2023-08-01T02:38:13;15.90;99.90
19292;DHT22;9779;51.756;7.450;2023-08-01T02:40:38;15.90;99.90
19292;DHT22;9779;51.756;7.450;2023-08-01T02:43:04;15.90;99.90
19292;DHT22;9779;51.756;7.450;2023-08-01T02:45:29;15.90;99.90
19292;DHT22;9779;51.756;7.450;2023-08-01T02:47:55;15.90;99.90
19292;DHT22;9779;51.756;7.450;2023-08-01T02:50:21;15.90;99.90
19292;DHT22;9779;51.756;7.450;2023-08-01T02:52:46;15.90;99.90
19292;DHT22;9779;51.756;7.450;2023-08-01T02:55:12;15.90;99.90
19292;DHT22;9779;51.756;7.450;2023-08-01T02:57:37;15.90;99.90
19292;DHT22;9779;51.756;7.450;2023-08-01T03:00:03;15.90;99.90
19292;DHT22;9779;51.756;7.450;2023-08-01T03:02:31;15.90;99.90
19292;DHT22;9779;51.756;7.450;2023-08-01T03:04:57;15.90;99.90
19292;DHT22;9779;51.756;7.450;2023-08-01T03:07:22;15.90;99.90
19292;DHT22;9779;51.756;7.450;2023-08-01T03:09:48;15.90;99.90
19292;DHT22;9779;51.756;7.450;2023-08-01T03:12:13;15.90;99.90
19292;DHT22;9779;51.756;7.450;2023-08-01T03:14:39;15.90;99.90
19292;DHT22;9779;51.756;7.450;2023-08-01T03:17:06;15.90;99.90
19292;DHT22;9779;51.756;7.450;2023-08-01T03:19:33;15.80;99.90
19292;DHT22;9779;51.756;7.450;2023-08-01T03:22:00;15.90;99.90
19292;DHT22;9779;51.756;7.450;2023-08-01T03:24:25;15.90;99.90
19292;DHT22;9779;51.756;7.450;2023-08-01T03:26:51;15.90;99.90
19292;DHT22;9779;51.756;7.450;2023-08-01T03:29:17;15.90;99.90
19292;DHT22;9779;51.756;7.450;2023-08-01T03:31:42;15.80;99.90
19292;DHT22;9779;51.756;7.450;2023-08-01T03:34:08;15.90;99.90
19292;DHT22;9779;51.756;7.450;2023-08-01T03:36:34;15.90;99.90
19292;DHT22;9779;51.756;7.450;2023-08-01T03:39:00;15.90;99.90
19292;DHT22;9779;51.756;7.450;2023-08-01T03:41:26;15.90;99.90
19292;DHT22;9779;51.756;7.450;2023-08-01T03:43:51;15.90;99.90
19292;DHT22;9779;51.756;7.450;2023-08-01T03:46:17;15.90;99.90
19292;DHT22;9779;51.756;7.450;2023-08-01T03:48:42;15.90;99.90
19292;DHT22;9779;51.756;7.450;2023-08-01T03:51:08;15.90;99.90
19292;DHT22;9779;51.756;7.450;2023-08-01T03:53:34;15.90;99.90
19292;DHT22;9779;51.756;7.450;2023-08-01T03:55:59;15.90;99.90
19292;DHT22;9779;51.756;7.450;2023-08-01T03:58:25;15.80;99.90
19292;DHT22;9779;51.756;7.450;2023-08-01T04:00:51;15.90;99.90
19292;DHT22;9779;51.756;7.450;2023-08-01T04:03:16;15.90;99.90
19292;DHT22;9779;51.756;7.450;2023-08-01T04:05:42;15.80;99.90
19292;DHT22;9779;51.756;7.450;2023-08-01T04:08:08;15.90;99.90
19292;DHT22;9779;51.756;7.450;2023-08-01T04:10:34;15.90;99.90
19292;DHT22;9779;51.756;7.450;2023-08-01T04:12:59;15.90;99.90
19292;DHT22;9779;51.756;7.450;2023-08-01T04:15:25;15.80;99.90
19292;DHT22;9779;51.756;7.450;2023-08-01T04:17:50;15.80;99.90
19292;DHT22;9779;51.756;7.450;2023-08-01T04:20:16;15.80;99.90
19292;DHT22;9779;51.756;7.450;2023-08-01T04:22:41;15.70;99.90
19292;DHT22;9779;51.756;7.450;2023-08-01T04:25:07;15.70;99.90
19292;DHT22;9779;51.756;7.450;2023-08-01T04:27:33;15.80;99.90
19292;DHT22;9779;51.756;7.450;2023-08-01T04:29:59;15.70;99.90
19292;DHT22;9779;51.756;7.450;2023-08-01T04:32:25;15.70;99.90
19292;DHT22;9779;51.756;7.450;2023-08-01T04:34:50;15.70;99.90
19292;DHT22;9779;51.756;7.450;2023-08-01T04:37:16;15.70;99.90
19292;DHT22;9779;51.756;7.450;2023-08-01T04:39:41;15.70;99.90
19292;DHT22;9779;51.756;7.450;2023-08-01T04:42:07;15.70;99.90
19292;DHT22;9779;51.756;7.450;2023-08-01T04:44:33;15.60;99.90
19292;DHT22;9779;51.756;7.450;2023-08-01T04:46:58;15.70;99.90
19292;DHT22;9779;51.756;7.450;2023-08-01T04:49:24;15.70;99.90
19292;DHT22;9779;51.756;7.450;2023-08-01T04:51:50;15.70;99.90
19292;DHT22;9779;51.756;7.450;2023-08-01T04:54:16;15.70;99.90
19292;DHT22;9779;51.756;7.450;2023-08-01T04:56:41;15.70;99.90
19292;DHT22;9779;51.756;7.450;2023-08-01T04:59:07;15.70;99.90
19292;DHT22;9779;51.756;7.450;2023-08-01T05:01:33;15.70;99.90
19292;DHT22;9779;51.756;7.450;2023-08-01T05:03:58;15.70;99.90
19292;DHT22;9779;51.756;7.450;2023-08-01T05:06:24;15.70;99.90
19292;DHT22;9779;51.756;7.450;2023-08-01T05:08:49;15.70;99.90
19292;DHT22;9779;51.756;7.450;2023-08-01T05:11:15;15.70;99.90
19292;DHT22;9779;51.756;7.450;2023-08-01T05:13:40;15.70;99.90
19292;DHT22;9779;51.756;7.450;2023-08-01T05:16:06;15.70;99.90
19292;DHT22;9779;51.756;7.450;2023-08-01T05:18:31;15.60;99.90
19292;DHT22;9779;51.756;7.450;2023-08-01T05:20:57;15.60;99.90
19292;DHT22;9779;51.756;7.450;2023-08-01T05:23:23;15.60;99.90
19292;DHT22;9779;51.756;7.450;2023-08-01T05:25:48;15.60;99.90
19292;DHT22;9779;51.756;7.450;2023-08-01T05:28:14;15.60;99.90
19292;DHT22;9779;51.756;7.450;2023-08-01T05:30:40;15.60;99.90
19292;DHT22;9779;51.756;7.450;2023-08-01T05:33:06;15.60;99.90
19292;DHT22;9779;51.756;7.450;2023-08-01T05:35:31;15.60;99.90
19292;DHT22;9779;51.756;7.450;2023-08-01T05:37:57;15.60;99.90
19292;DHT22;9779;51.756;7.450;2023-08-01T05:40:22;15.60;99.90
19292;DHT22;9779;51.756;7.450;2023-08-01T05:42:48;15.60;99.90
19292;DHT22;9779;51.756;7.450;2023-08-01T05:45:14;15.60;99.90
19292;DHT22;9779;51.756;7.450;2023-08-01T05:47:39;15.60;99.90
19292;DHT22;9779;51.756;7.450;2023-08-01T05:50:06;15.60;99.90
19292;DHT22;9779;51.756;7.450;2023-08-01T05:52:33;15.60;99.90
19292;DHT22;9779;51.756;7.450;2023-08-01T05:54:59;15.70;99.90
19292;DHT22;9779;51.756;7.450;2023-08-01T05:57:25;15.70;99.90
19292;DHT22;9779;51.756;7.450;2023-08-01T05:59:50;15.70;99.90
19292;DHT22;9779;51.756;7.450;2023-08-01T06:02:16;15.70;99.90
19292;DHT22;9779;51.756;7.450;2023-08-01T06:04:41;15.60;99.90
19292;DHT22;9779;51.756;7.450;2023-08-01T06:07:07;15.70;99.90
19292;DHT22;9779;51.756;7.450;2023-08-01T06:09:33;15.60;99.90
19292;DHT22;9779;51.756;7.450;2023-08-01T06:11:58;15.60;99.90
19292;DHT22;9779;51.756;7.450;2023-08-01T06:14:24;15.70;99.90
19292;DHT22;9779;51.756;7.450;2023-08-01T06:16:50;15.70;99.90
19292;DHT22;9779;51.756;7.450;2023-08-01T06:19:15;15.70;99.90
19292;DHT22;9779;51.756;7.450;2023-08-01T06:21:41;15.70;99.90
19292;DHT22;9779;51.756;7.450;2023-08-01T06:24:06;15.70;99.90
19292;DHT22;9779;51.756;7.450;2023-08-01T06:26:33;15.70;99.90
19292;DHT22;9779;51.756;7.450;2023-08-01T06:28:59;15.70;99.90
19292;DHT22;9779;51.756;7.450;2023-08-01T06:31:25;15.80;99.90
19292;DHT22;9779;51.756;7.450;2023-08-01T06:33:50;15.80;99.90
19292;DHT22;9779;51.756;7.450;2023-08-01T06:36:16;15.80;99.90
19292;DHT22;9779;51.756;7.450;2023-08-01T06:38:43;15.90;99.90
19292;DHT22;9779;51.756;7.450;2023-08-01T06:41:08;16.10;99.90
19292;DHT22;9779;51.756;7.450;2023-08-01T06:43:34;16.10;99.90
19292;DHT22;9779;51.756;7.450;2023-08-01T06:45:59;16.10;99.90
19292;DHT22;9779;51.756;7.450;2023-08-01T06:48:25;16.20;99.90
19292;DHT22;9779;51.756;7.450;2023-08-01T06:50:51;16.30;99.90
19292;DHT22;9779;51.756;7.450;2023-08-01T06:53:16;16.20;99.90
19292;DHT22;9779;51.756;7.450;2023-08-01T06:55:42;16.10;99.90
19292;DHT22;9779;51.756;7.450;2023-08-01T06:58:08;16.20;99.90
19292;DHT22;9779;51.756;7.450;2023-08-01T07:00:33;16.20;99.90
19292;DHT22;9779;51.756;7.450;2023-08-01T07:02:59;16.20;99.90
19292;DHT22;9779;51.756;7.450;2023-08-01T07:05:24;16.20;99.90
19292;DHT22;9779;51.756;7.450;2023-08-01T07:07:50;16.20;99.90
19292;DHT22;9779;51.756;7.450;2023-08-01T07:10:15;16.20;99.90
19292;DHT22;9779;51.756;7.450;2023-08-01T07:12:41;16.30;99.90
19292;DHT22;9779;51.756;7.450;2023-08-01T07:15:07;16.30;99.90
19292;DHT22;9779;51.756;7.450;2023-08-01T07:17:33;16.30;99.90
19292;DHT22;9779;51.756;7.450;2023-08-01T07:19:58;16.30;99.90
19292;DHT22;9779;51.756;7.450;2023-08-01T07:22:24;16.30;99.90
19292;DHT22;9779;51.756;7.450;2023-08-01T07:24:56;16.30;99.90
19292;DHT22;9779;51.756;7.450;2023-08-01T07:27:21;16.30;99.90
19292;DHT22;9779;51.756;7.450;2023-08-01T07:29:47;16.30;99.90
19292;DHT22;9779;51.756;7.450;2023-08-01T07:32:13;16.30;99.90
19292;DHT22;9779;51.756;7.450;2023-08-01T07:34:39;16.30;99.90
19292;DHT22;9779;51.756;7.450;2023-08-01T07:37:05;16.40;99.90
19292;DHT22;9779;51.756;7.450;2023-08-01T07:39:30;16.40;99.90
19292;DHT22;9779;51.756;7.450;2023-08-01T07:41:56;16.50;99.90
19292;DHT22;9779;51.756;7.450;2023-08-01T07:44:22;16.50;99.90
19292;DHT22;9779;51.756;7.450;2023-08-01T07:46:47;16.50;99.90
19292;DHT22;9779;51.756;7.450;2023-08-01T07:49:13;16.40;99.90
19292;DHT22;9779;51.756;7.450;2023-08-01T07:51:38;16.50;99.90
19292;DHT22;9779;51.756;7.450;2023-08-01T07:54:04;16.50;99.90
19292;DHT22;9779;51.756;7.450;2023-08-01T07:56:29;16.60;99.90
19292;DHT22;9779;51.756;7.450;2023-08-01T07:58:55;16.60;99.90
19292;DHT22;9779;51.756;7.450;2023-08-01T08:01:21;16.60;99.90
19292;DHT22;9779;51.756;7.450;2023-08-01T08:03:46;16.60;99.90
19292;DHT22;9779;51.756;7.450;2023-08-01T08:06:12;16.60;99.90
19292;DHT22;9779;51.756;7.450;2023-08-01T08:08:37;16.60;99.90
19292;DHT22;9779;51.756;7.450;2023-08-01T08:11:03;16.80;99.90
19292;DHT22;9779;51.756;7.450;2023-08-01T08:13:29;16.90;99.90
19292;DHT22;9779;51.756;7.450;2023-08-01T08:15:58;17.00;99.90
19292;DHT22;9779;51.756;7.450;2023-08-01T08:18:24;16.90;99.90
19292;DHT22;9779;51.756;7.450;2023-08-01T08:20:50;16.90;99.90
19292;DHT22;9779;51.756;7.450;2023-08-01T08:23:15;16.90;99.90
19292;DHT22;9779;51.756;7.450;2023-08-01T08:25:42;17.00;99.90
19292;DHT22;9779;51.756;7.450;2023-08-01T08:28:07;17.00;99.90
19292;DHT22;9779;51.756;7.450;2023-08-01T08:30:33;17.10;99.90
19292;DHT22;9779;51.756;7.450;2023-08-01T08:33:00;17.10;99.90
19292;DHT22;9779;51.756;7.450;2023-08-01T08:35:30;17.10;99.90
19292;DHT22;9779;51.756;7.450;2023-08-01T08:37:58;17.20;99.90
19292;DHT22;9779;51.756;7.450;2023-08-01T08:40:23;17.30;99.90
19292;DHT22;9779;51.756;7.450;2023-08-01T08:42:49;17.30;99.90
19292;DHT22;9779;51.756;7.450;2023-08-01T08:45:19;17.30;99.90
19292;DHT22;9779;51.756;7.450;2023-08-01T08:47:53;17.30;99.90
19292;DHT22;9779;51.756;7.450;2023-08-01T08:50:20;17.40;99.90
19292;DHT22;9779;51.756;7.450;2023-08-01T08:52:46;17.50;99.90
19292;DHT22;9779;51.756;7.450;2023-08-01T08:55:12;17.40;99.90
19292;DHT22;9779;51.756;7.450;2023-08-01T08:57:38;17.40;99.90
19292;DHT22;9779;51.756;7.450;2023-08-01T09:00:05;17.30;99.90
19292;DHT22;9779;51.756;7.450;2023-08-01T09:02:32;17.30;99.90
19292;DHT22;9779;51.756;7.450;2023-08-01T09:04:58;17.50;99.90
19292;DHT22;9779;51.756;7.450;2023-08-01T09:07:29;17.80;99.90
19292;DHT22;9779;51.756;7.450;2023-08-01T09:09:55;17.90;99.90
19292;DHT22;9779;51.756;7.450;2023-08-01T09:12:21;18.00;99.90
19292;DHT22;9779;51.756;7.450;2023-08-01T09:14:49;18.10;99.90
19292;DHT22;9779;51.756;7.450;2023-08-01T09:17:15;18.10;99.90
19292;DHT22;9779;51.756;7.450;2023-08-01T09:19:43;18.20;99.90
19292;DHT22;9779;51.756;7.450;2023-08-01T09:22:17;18.20;99.90
19292;DHT22;9779;51.756;7.450;2023-08-01T09:24:52;18.20;99.90
19292;DHT22;9779;51.756;7.450;2023-08-01T09:27:20;18.20;99.90
19292;DHT22;9779;51.756;7.450;2023-08-01T09:29:45;18.20;99.90
19292;DHT22;9779;51.756;7.450;2023-08-01T09:32:12;18.20;99.90
19292;DHT22;9779;51.756;7.450;2023-08-01T09:34:39;18.30;99.90
19292;DHT22;9779;51.756;7.450;2023-08-01T09:37:04;18.40;99.90
19292;DHT22;9779;51.756;7.450;2023-08-01T09:39:30;18.40;99.90
19292;DHT22;9779;51.756;7.450;2023-08-01T09:42:00;18.50;99.90
19292;DHT22;9779;51.756;7.450;2023-08-01T09:44:27;18.70;99.90
19292;DHT22;9779;51.756;7.450;2023-08-01T09:46:59;18.80;99.90
19292;DHT22;9779;51.756;7.450;2023-08-01T09:49:27;18.80;99.90
19292;DHT22;9779;51.756;7.450;2023-08-01T09:51:53;18.80;99.90
19292;DHT22;9779;51.756;7.450;2023-08-01T09:54:20;18.70;99.90
19292;DHT22;9779;51.756;7.450;2023-08-01T09:56:48;18.70;99.90
19292;DHT22;9779;51.756;7.450;2023-08-01T09:59:27;18.70;99.90
19292;DHT22;9779;51.756;7.450;2023-08-01T10:01:54;19.00;99.90
19292;DHT22;9779;51.756;7.450;2023-08-01T10:04:39;19.10;99.90
19292;DHT22;9779;51.756;7.450;2023-08-01T10:07:11;19.10;99.90
19292;DHT22;9779;51.756;7.450;2023-08-01T10:09:37;18.90;99.90
19292;DHT22;9779;51.756;7.450;2023-08-01T10:12:04;18.60;99.90
19292;DHT22;9779;51.756;7.450;2023-08-01T10:14:32;18.30;99.90
19292;DHT22;9779;51.756;7.450;2023-08-01T10:16:58;18.10;99.90
19292;DHT22;9779;51.756;7.450;2023-08-01T10:19:24;18.00;99.90
19292;DHT22;9779;51.756;7.450;2023-08-01T10:21:50;17.80;99.90
19292;DHT22;9779;51.756;7.450;2023-08-01T10:24:17;17.60;99.90
19292;DHT22;9779;51.756;7.450;2023-08-01T10:26:45;17.70;99.90
19292;DHT22;9779;51.756;7.450;2023-08-01T10:29:11;17.70;99.90
19292;DHT22;9779;51.756;7.450;2023-08-01T10:31:37;17.70;99.90
19292;DHT22;9779;51.756;7.450;2023-08-01T10:34:05;17.70;99.90
19292;DHT22;9779;51.756;7.450;2023-08-01T10:36:31;17.70;99.90
19292;DHT22;9779;51.756;7.450;2023-08-01T10:38:59;17.90;99.90
19292;DHT22;9779;51.756;7.450;2023-08-01T10:41:26;18.20;99.90
19292;DHT22;9779;51.756;7.450;2023-08-01T10:44:14;18.30;99.90
19292;DHT22;9779;51.756;7.450;2023-08-01T10:47:10;18.60;99.90
19292;DHT22;9779;51.756;7.450;2023-08-01T10:49:41;18.90;99.90
19292;DHT22;9779;51.756;7.450;2023-08-01T10:52:22;19.10;99.90
19292;DHT22;9779;51.756;7.450;2023-08-01T10:55:04;19.10;99.90
19292;DHT22;9779;51.756;7.450;2023-08-01T10:57:35;19.20;99.90
19292;DHT22;9779;51.756;7.450;2023-08-01T11:00:01;19.20;99.90
19292;DHT22;9779;51.756;7.450;2023-08-01T11:02:30;19.20;99.90
19292;DHT22;9779;51.756;7.450;2023-08-01T11:05:00;19.20;99.90
19292;DHT22;9779;51.756;7.450;2023-08-01T11:07:27;19.30;99.90
19292;DHT22;9779;51.756;7.450;2023-08-01T11:10:13;19.40;99.90
19292;DHT22;9779;51.756;7.450;2023-08-01T11:12:40;19.40;99.90
19292;DHT22;9779;51.756;7.450;2023-08-01T11:15:11;19.40;99.90
19292;DHT22;9779;51.756;7.450;2023-08-01T11:17:40;19.50;99.90
19292;DHT22;9779;51.756;7.450;2023-08-01T11:20:07;19.50;99.90
19292;DHT22;9779;51.756;7.450;2023-08-01T11:22:38;19.50;99.90
19292;DHT22;9779;51.756;7.450;2023-08-01T11:25:13;19.50;99.90
19292;DHT22;9779;51.756;7.450;2023-08-01T11:27:39;19.60;99.90
19292;DHT22;9779;51.756;7.450;2023-08-01T11:30:05;19.70;99.90
19292;DHT22;9779;51.756;7.450;2023-08-01T11:32:37;19.80;99.90
19292;DHT22;9779;51.756;7.450;2023-08-01T11:35:04;19.90;99.90
19292;DHT22;9779;51.756;7.450;2023-08-01T11:37:30;19.90;99.90
19292;DHT22;9779;51.756;7.450;2023-08-01T11:39:57;20.00;1.00
19292;DHT22;9779;51.756;7.450;2023-08-01T11:42:22;19.90;1.00
19292;DHT22;9779;51.756;7.450;2023-08-01T11:44:48;20.10;1.00
19292;DHT22;9779;51.756;7.450;2023-08-01T11:47:16;20.10;1.00
19292;DHT22;9779;51.756;7.450;2023-08-01T11:49:48;20.10;1.00
19292;DHT22;9779;51.756;7.450;2023-08-01T11:52:28;20.30;1.00
19292;DHT22;9779;51.756;7.450;2023-08-01T11:54:54;20.50;16.90
19292;DHT22;9779;51.756;7.450;2023-08-01T11:57:24;20.90;99.90
19292;DHT22;9779;51.756;7.450;2023-08-01T11:59:55;21.00;48.20
19292;DHT22;9779;51.756;7.450;2023-08-01T12:02:25;20.80;99.90
19292;DHT22;9779;51.756;7.450;2023-08-01T12:04:52;20.60;99.90
19292;DHT22;9779;51.756;7.450;2023-08-01T12:07:18;20.20;99.90
19292;DHT22;9779;51.756;7.450;2023-08-01T12:09:45;20.10;1.00
19292;DHT22;9779;51.756;7.450;2023-08-01T12:12:19;20.10;1.00
19292;DHT22;9779;51.756;7.450;2023-08-01T12:14:45;20.00;1.00
19292;DHT22;9779;51.756;7.450;2023-08-01T12:17:10;20.00;1.00
19292;DHT22;9779;51.756;7.450;2023-08-01T12:19:36;20.00;1.00
19292;DHT22;9779;51.756;7.450;2023-08-01T12:22:02;20.00;1.00
19292;DHT22;9779;51.756;7.450;2023-08-01T12:24:27;20.10;1.00
19292;DHT22;9779;51.756;7.450;2023-08-01T12:26:53;20.30;1.00
19292;DHT22;9779;51.756;7.450;2023-08-01T12:29:18;20.50;99.90
19292;DHT22;9779;51.756;7.450;2023-08-01T12:31:44;20.70;99.90
19292;DHT22;9779;51.756;7.450;2023-08-01T12:34:11;20.80;1.00
19292;DHT22;9779;51.756;7.450;2023-08-01T12:36:36;20.90;1.00
19292;DHT22;9779;51.756;7.450;2023-08-01T12:39:02;21.00;1.00
19292;DHT22;9779;51.756;7.450;2023-08-01T12:41:28;21.20;99.90
19292;DHT22;9779;51.756;7.450;2023-08-01T12:43:54;21.20;1.00
19292;DHT22;9779;51.756;7.450;2023-08-01T12:46:19;20.90;1.00
19292;DHT22;9779;51.756;7.450;2023-08-01T12:48:46;20.80;99.90
19292;DHT22;9779;51.756;7.450;2023-08-01T12:51:12;20.50;99.90
19292;DHT22;9779;51.756;7.450;2023-08-01T12:53:39;20.40;1.00
19292;DHT22;9779;51.756;7.450;2023-08-01T12:56:05;20.20;1.00
19292;DHT22;9779;51.756;7.450;2023-08-01T12:58:31;20.30;1.00
19292;DHT22;9779;51.756;7.450;2023-08-01T13:00:57;20.30;1.00
19292;DHT22;9779;51.756;7.450;2023-08-01T13:03:22;20.30;1.00
19292;DHT22;9779;51.756;7.450;2023-08-01T13:05:48;20.60;1.00
19292;DHT22;9779;51.756;7.450;2023-08-01T13:08:13;21.00;1.00
19292;DHT22;9779;51.756;7.450;2023-08-01T13:10:39;21.20;1.00
19292;DHT22;9779;51.756;7.450;2023-08-01T13:13:05;21.00;1.00
19292;DHT22;9779;51.756;7.450;2023-08-01T13:15:31;20.90;1.00
19292;DHT22;9779;51.756;7.450;2023-08-01T13:17:56;20.70;1.00
19292;DHT22;9779;51.756;7.450;2023-08-01T13:20:22;20.60;1.00
19292;DHT22;9779;51.756;7.450;2023-08-01T13:22:51;20.60;1.00
19292;DHT22;9779;51.756;7.450;2023-08-01T13:25:18;20.50;99.90
19292;DHT22;9779;51.756;7.450;2023-08-01T13:27:43;20.80;97.90
19292;DHT22;9779;51.756;7.450;2023-08-01T13:30:09;21.20;1.00
19292;DHT22;9779;51.756;7.450;2023-08-01T13:32:36;21.60;1.00
19292;DHT22;9779;51.756;7.450;2023-08-01T13:35:02;21.50;1.00
19292;DHT22;9779;51.756;7.450;2023-08-01T13:37:27;21.40;1.00
19292;DHT22;9779;51.756;7.450;2023-08-01T13:39:56;21.70;1.00
19292;DHT22;9779;51.756;7.450;2023-08-01T13:42:21;21.90;1.00
19292;DHT22;9779;51.756;7.450;2023-08-01T13:44:47;21.90;99.90
19292;DHT22;9779;51.756;7.450;2023-08-01T13:47:12;21.80;1.00
19292;DHT22;9779;51.756;7.450;2023-08-01T13:49:38;21.60;99.90
19292;DHT22;9779;51.756;7.450;2023-08-01T13:52:04;21.50;1.00
19292;DHT22;9779;51.756;7.450;2023-08-01T13:54:30;21.30;86.50
19292;DHT22;9779;51.756;7.450;2023-08-01T13:56:55;21.20;1.00
19292;DHT22;9779;51.756;7.450;2023-08-01T13:59:21;21.10;1.00
19292;DHT22;9779;51.756;7.450;2023-08-01T14:01:47;20.90;1.00
19292;DHT22;9779;51.756;7.450;2023-08-01T14:04:12;21.10;1.00
19292;DHT22;9779;51.756;7.450;2023-08-01T14:06:42;21.40;1.00
19292;DHT22;9779;51.756;7.450;2023-08-01T14:09:08;22.00;1.00
19292;DHT22;9779;51.756;7.450;2023-08-01T14:11:34;22.20;1.00
19292;DHT22;9779;51.756;7.450;2023-08-01T14:14:00;21.90;99.90
19292;DHT22;9779;51.756;7.450;2023-08-01T14:16:25;21.80;99.90
19292;DHT22;9779;51.756;7.450;2023-08-01T14:18:51;21.80;1.00
19292;DHT22;9779;51.756;7.450;2023-08-01T14:21:16;21.40;99.90
19292;DHT22;9779;51.756;7.450;2023-08-01T14:23:42;21.20;1.00
19292;DHT22;9779;51.756;7.450;2023-08-01T14:26:08;21.10;1.00
19292;DHT22;9779;51.756;7.450;2023-08-01T14:28:33;21.00;1.00
19292;DHT22;9779;51.756;7.450;2023-08-01T14:31:03;21.00;99.90
19292;DHT22;9779;51.756;7.450;2023-08-01T14:33:29;21.10;20.60
19292;DHT22;9779;51.756;7.450;2023-08-01T14:35:55;21.20;99.90
19292;DHT22;9779;51.756;7.450;2023-08-01T14:38:21;21.00;96.40
19292;DHT22;9779;51.756;7.450;2023-08-01T14:40:46;21.30;1.00
19292;DHT22;9779;51.756;7.450;2023-08-01T14:43:12;21.60;1.00
19292;DHT22;9779;51.756;7.450;2023-08-01T14:45:39;22.00;99.90
19292;DHT22;9779;51.756;7.450;2023-08-01T14:48:05;22.40;99.90
19292;DHT22;9779;51.756;7.450;2023-08-01T14:50:31;22.80;1.00
19292;DHT22;9779;51.756;7.450;2023-08-01T14:52:56;22.70;99.90
19292;DHT22;9779;51.756;7.450;2023-08-01T14:55:22;22.70;1.00
19292;DHT22;9779;51.756;7.450;2023-08-01T14:57:48;22.70;1.00
19292;DHT22;9779;51.756;7.450;2023-08-01T15:00:15;22.70;1.00
19292;DHT22;9779;51.756;7.450;2023-08-01T15:02:40;22.90;1.00
19292;DHT22;9779;51.756;7.450;2023-08-01T15:05:06;22.70;99.90
19292;DHT22;9779;51.756;7.450;2023-08-01T15:07:32;22.40;1.00
19292;DHT22;9779;51.756;7.450;2023-08-01T15:09:57;22.40;50.50
19292;DHT22;9779;51.756;7.450;2023-08-01T15:12:23;22.20;1.00
19292;DHT22;9779;51.756;7.450;2023-08-01T15:14:53;21.90;1.00
19292;DHT22;9779;51.756;7.450;2023-08-01T15:17:19;21.90;1.00
19292;DHT22;9779;51.756;7.450;2023-08-01T15:19:44;21.70;1.00
19292;DHT22;9779;51.756;7.450;2023-08-01T15:22:19;21.60;63.00
19292;DHT22;9779;51.756;7.450;2023-08-01T15:24:45;21.40;39.50
19292;DHT22;9779;51.756;7.450;2023-08-01T15:27:11;21.40;99.90
19292;DHT22;9779;51.756;7.450;2023-08-01T15:29:37;21.40;99.90
19292;DHT22;9779;51.756;7.450;2023-08-01T15:32:03;21.40;1.00
19292;DHT22;9779;51.756;7.450;2023-08-01T15:34:28;21.70;1.00
19292;DHT22;9779;51.756;7.450;2023-08-01T15:36:54;22.10;99.90
19292;DHT22;9779;51.756;7.450;2023-08-01T15:39:20;22.30;1.00
19292;DHT22;9779;51.756;7.450;2023-08-01T15:41:46;22.50;1.00
19292;DHT22;9779;51.756;7.450;2023-08-01T15:44:12;22.60;1.00
19292;DHT22;9779;51.756;7.450;2023-08-01T15:46:38;22.70;99.90